Terminal Aerodrome Forecast
Issued by NWS

Home | Current Version | Previous Version | Text Only | Print | Product List | Glossary On
Versions: 1 2 3 4 5 6 7 8 9 10 11 12 13 14 15 16 17 18 19 20 21 22 23 24 25 26
000
FTUS45 KSLC 240530
TAFENV
TAF
KENV 240530Z 2406/2506 32015G23KT P6SM FEW150
     FM240900 02008KT P6SM SKC
     FM241600 10007KT P6SM SKC
     FM250300 34010KT P6SM SKC
      AMD LTD TO CLD VIS AND WIND=

USA.gov is the U.S. government's official web portal to all federal, state and local government web resources and services.